createdAt,value
2022-09-15T00:02:51.156Z,3.25
2022-09-15T00:05:19.409Z,6.15
2022-09-15T00:07:49.850Z,5.63
2022-09-15T00:10:20.121Z,4.32
2022-09-15T00:12:50.462Z,7.47
2022-09-15T00:15:22.188Z,2.58
2022-09-15T00:17:53.517Z,1.77
2022-09-15T00:20:21.475Z,2.33
2022-09-15T00:22:50.915Z,1.73
2022-09-15T00:25:20.030Z,4.20
2022-09-15T00:27:46.719Z,1.55
2022-09-15T00:30:18.153Z,2.58
2022-09-15T00:32:48.528Z,4.75
2022-09-15T00:35:17.549Z,3.17
2022-09-15T00:37:46.733Z,1.83
2022-09-15T00:40:16.974Z,2.22
2022-09-15T00:42:47.492Z,2.30
2022-09-15T00:45:19.043Z,3.63
2022-09-15T00:47:49.545Z,2.27
2022-09-15T00:50:19.059Z,3.28
2022-09-15T02:38:14.560Z,3.30
2022-09-15T02:44:02.878Z,2.75
2022-09-15T02:46:33.318Z,4.93
2022-09-15T02:49:00.907Z,7.63
2022-09-15T02:51:27.470Z,9.52
2022-09-15T02:53:54.047Z,5.28
2022-09-15T02:56:29.813Z,2.58
2022-09-15T02:58:59.212Z,2.25
2022-09-15T03:01:31.468Z,6.50
2022-09-15T03:04:07.413Z,3.08
2022-09-15T03:06:36.404Z,4.32
2022-09-15T03:09:06.433Z,2.85
2022-09-15T03:11:37.735Z,5.90
2022-09-15T03:14:09.566Z,5.65
2022-09-15T03:16:38.329Z,2.20
2022-09-15T03:19:05.015Z,2.17
2022-09-15T03:24:28.375Z,1.70
2022-09-15T03:32:58.456Z,2.03
2022-09-15T03:35:25.092Z,1.92
2022-09-15T03:37:53.773Z,3.63
2022-09-15T03:40:26.530Z,3.08
2022-09-15T03:42:53.313Z,4.13
2022-09-15T03:45:19.933Z,3.78
2022-09-15T03:47:46.598Z,2.83
2022-09-15T03:50:14.471Z,4.20
2022-09-15T03:52:41.346Z,4.57
2022-09-15T03:55:08.248Z,7.43
2022-09-15T03:57:35.022Z,4.13
2022-09-15T04:00:03.504Z,4.38
2022-09-15T04:02:30.803Z,5.05
2022-09-15T04:05:05.204Z,1.55
2022-09-15T04:07:34.325Z,6.75
2022-09-15T04:10:03.910Z,3.33
2022-09-15T04:12:32.812Z,4.28
2022-09-15T04:14:59.970Z,3.03
2022-09-15T04:17:27.509Z,2.88
2022-09-15T04:19:57.976Z,2.80
2022-09-15T04:22:24.708Z,5.40
2022-09-15T04:24:55.109Z,2.95
2022-09-15T04:27:22.499Z,9.15
2022-09-15T04:30:00.160Z,4.55
2022-09-15T04:32:29.654Z,4.35
2022-09-15T04:40:51.240Z,5.15
2022-09-15T04:43:59.407Z,7.85
2022-09-15T04:46:26.149Z,2.65
2022-09-15T04:48:55.212Z,3.15
2022-09-15T04:51:28.248Z,5.25
2022-09-15T04:53:55.150Z,2.50
2022-09-15T04:56:26.650Z,2.53
2022-09-15T04:59:00.937Z,2.55
2022-09-15T05:01:37.477Z,4.97
2022-09-15T05:04:09.893Z,4.50
2022-09-15T05:06:37.535Z,3.28
2022-09-15T05:09:10.022Z,5.15
2022-09-15T05:11:37.906Z,3.90
2022-09-15T05:14:04.803Z,5.07
2022-09-15T05:16:36.670Z,3.88
2022-09-15T05:19:04.012Z,5.45
2022-09-15T05:21:31.956Z,5.63
2022-09-15T05:23:58.722Z,3.13
2022-09-15T05:26:35.117Z,2.03
2022-09-15T05:29:01.814Z,6.85
2022-09-15T05:31:30.625Z,5.75
2022-09-15T05:34:03.798Z,1.85
2022-09-15T05:36:31.088Z,6.28
2022-09-15T05:38:58.303Z,3.15
2022-09-15T05:41:30.503Z,5.20
2022-09-15T05:43:57.984Z,4.28
2022-09-15T05:46:25.816Z,7.07
2022-09-15T05:48:57.288Z,5.88
2022-09-15T05:51:24.296Z,3.97
2022-09-15T05:53:51.242Z,3.95
2022-09-15T05:56:19.371Z,5.22
2022-09-15T05:58:49.193Z,3.65
2022-09-15T06:01:26.080Z,6.78
2022-09-15T06:03:53.848Z,4.25
2022-09-15T06:06:21.764Z,3.15
2022-09-15T06:08:55.661Z,4.03
2022-09-15T06:11:33.009Z,3.47
2022-09-15T06:14:02.338Z,7.00
2022-09-15T06:16:32.524Z,4.93
2022-09-15T06:19:04.548Z,4.82
2022-09-15T06:21:32.598Z,1.63
2022-09-15T06:24:06.363Z,6.72
2022-09-15T06:26:33.599Z,5.45
2022-09-15T06:29:02.365Z,3.55
2022-09-15T06:31:34.891Z,4.32
2022-09-15T06:34:03.308Z,3.45
2022-09-15T06:36:34.436Z,1.67
2022-09-15T06:39:02.101Z,4.00
2022-09-15T06:41:52.556Z,7.38
2022-09-15T06:44:25.914Z,3.70
2022-09-15T06:46:58.059Z,6.88
2022-09-15T06:49:34.208Z,4.15
2022-09-15T06:52:04.556Z,2.28
2022-09-15T06:54:47.315Z,2.55
2022-09-15T06:57:16.242Z,3.50
2022-09-15T06:59:47.584Z,5.50
2022-09-15T07:02:14.410Z,3.20
2022-09-15T07:04:44.722Z,4.75
2022-09-15T07:07:11.520Z,6.07
2022-09-15T07:10:03.513Z,2.22
2022-09-15T07:12:55.785Z,2.92
2022-09-15T07:15:25.240Z,3.20
2022-09-15T07:17:51.842Z,4.70
2022-09-15T07:20:25.031Z,2.70
2022-09-15T07:22:51.671Z,2.28
2022-09-15T07:25:18.376Z,3.33
2022-09-15T07:27:45.066Z,6.43
2022-09-15T07:30:23.020Z,4.45
2022-09-15T07:32:53.546Z,2.60
2022-09-15T07:35:21.072Z,4.22
2022-09-15T07:38:43.278Z,1.65
2022-09-15T07:41:16.835Z,3.20
2022-09-15T07:43:51.051Z,3.28
2022-09-15T07:46:19.212Z,2.20
2022-09-15T07:48:47.361Z,2.78
2022-09-15T07:51:14.687Z,3.25
2022-09-15T07:53:47.150Z,2.78
2022-09-15T08:01:15.177Z,3.25
2022-09-15T08:03:44.249Z,4.47
2022-09-15T08:06:24.601Z,6.50
2022-09-15T08:08:57.760Z,4.63
2022-09-15T08:11:29.428Z,6.60
2022-09-15T08:14:11.399Z,4.28
2022-09-15T08:16:38.529Z,5.82
2022-09-15T08:19:05.957Z,4.20
2022-09-15T08:21:35.770Z,5.05
2022-09-15T08:24:02.482Z,5.32
2022-09-15T08:26:41.456Z,4.43
2022-09-15T08:29:08.659Z,5.38
2022-09-15T08:31:41.216Z,5.65
2022-09-15T08:34:17.196Z,4.70
2022-09-15T08:36:44.880Z,5.13
2022-09-15T08:39:11.989Z,4.45
2022-09-15T08:41:48.616Z,5.45
2022-09-15T08:44:30.051Z,3.88
2022-09-15T08:47:22.853Z,6.35
2022-09-15T08:52:45.167Z,6.28
2022-09-15T08:55:41.322Z,6.20
2022-09-15T08:58:23.375Z,5.35
2022-09-15T09:01:33.041Z,4.28
2022-09-15T09:04:21.306Z,3.78
2022-09-15T09:06:53.845Z,5.63
2022-09-15T09:09:46.645Z,4.65
2022-09-15T09:12:25.639Z,4.15
2022-09-15T09:15:05.708Z,6.90
2022-09-15T09:18:00.770Z,6.25
2022-09-15T09:21:05.774Z,5.45
2022-09-15T09:23:46.258Z,4.78
2022-09-15T09:26:13.827Z,6.07
2022-09-15T09:28:57.266Z,7.95
2022-09-15T09:31:28.761Z,8.00
2022-09-15T09:34:13.396Z,8.35
2022-09-15T09:36:43.288Z,7.85
2022-09-15T09:39:16.790Z,12.57
2022-09-15T09:44:15.837Z,6.03
2022-09-15T09:46:42.732Z,6.57
2022-09-15T09:49:25.488Z,5.88
2022-09-15T09:52:02.784Z,8.23
2022-09-15T09:54:31.991Z,8.35
2022-09-15T09:57:26.367Z,7.15
2022-09-15T09:59:53.120Z,5.65
2022-09-15T10:02:54.189Z,8.25
2022-09-15T10:05:21.868Z,6.55
2022-09-15T10:07:52.567Z,6.15
2022-09-15T10:10:24.234Z,7.72
2022-09-15T10:12:57.126Z,6.45
2022-09-15T10:15:33.939Z,8.77
2022-09-15T10:18:02.438Z,5.15
2022-09-15T10:20:40.282Z,6.03
2022-09-15T10:23:34.177Z,6.43
2022-09-15T10:26:41.009Z,5.03
2022-09-15T10:29:18.484Z,8.95
2022-09-15T10:31:49.693Z,5.50
2022-09-15T10:34:33.108Z,7.65
2022-09-15T10:37:15.570Z,7.82
2022-09-15T10:39:56.661Z,7.97
2022-09-15T10:42:56.402Z,8.93
2022-09-15T10:45:50.318Z,7.78
2022-09-15T10:48:46.005Z,4.50
2022-09-15T10:51:38.618Z,6.30
2022-09-15T10:54:48.822Z,5.25
2022-09-15T10:58:08.548Z,6.15
2022-09-15T11:01:05.028Z,6.18
2022-09-15T11:04:16.133Z,8.73
2022-09-15T11:07:03.685Z,5.50
2022-09-15T11:09:39.707Z,4.25
2022-09-15T11:12:33.116Z,5.40
2022-09-15T11:15:15.804Z,6.75
2022-09-15T11:18:18.966Z,4.72
2022-09-15T11:42:53.972Z,5.82
2022-09-15T11:45:28.556Z,8.00
2022-09-15T11:48:26.124Z,8.00
2022-09-15T11:50:59.324Z,6.78
2022-09-15T11:53:36.967Z,6.35
2022-09-15T11:56:36.009Z,10.02
2022-09-15T11:59:28.005Z,8.65
2022-09-15T12:02:09.583Z,11.25
2022-09-15T12:04:49.152Z,9.52
2022-09-15T12:07:28.384Z,9.43
2022-09-15T12:10:05.790Z,9.57
2022-09-15T12:12:40.173Z,9.10
2022-09-15T12:15:15.741Z,11.88
2022-09-15T12:18:34.442Z,14.02
2022-09-15T12:21:13.040Z,11.38
2022-09-15T12:24:20.093Z,13.87
2022-09-15T12:26:58.092Z,13.65
2022-09-15T12:29:27.831Z,12.18
2022-09-15T12:32:26.865Z,16.85
2022-09-15T12:35:00.995Z,11.35
2022-09-15T12:40:56.798Z,12.45
2022-09-15T12:43:25.875Z,11.98
2022-09-15T12:45:58.479Z,10.02
2022-09-15T12:48:45.623Z,15.10
2022-09-15T12:51:48.760Z,13.30
2022-09-15T12:54:25.039Z,15.45
2022-09-15T12:56:58.316Z,12.00
2022-09-15T12:59:29.020Z,14.45
2022-09-15T13:02:03.513Z,10.15
2022-09-15T13:04:50.454Z,13.05
2022-09-15T13:07:20.246Z,13.10
2022-09-15T13:10:19.050Z,12.00
2022-09-15T13:18:24.370Z,11.05
2022-09-15T13:20:59.620Z,10.07
2022-09-15T13:23:36.267Z,9.25
2022-09-15T13:26:14.742Z,9.18
2022-09-15T13:28:47.246Z,10.10
2022-09-15T13:31:29.315Z,9.32
2022-09-15T13:40:43.631Z,7.22
2022-09-15T13:43:35.351Z,8.68
2022-09-15T13:46:26.731Z,19.70
2022-09-15T13:49:21.307Z,3.67
2022-09-15T13:52:12.229Z,4.35
2022-09-15T13:55:11.595Z,4.82
2022-09-15T14:00:53.156Z,5.90
2022-09-15T14:03:43.339Z,5.47
2022-09-15T14:06:27.470Z,6.50
2022-09-15T14:09:05.804Z,9.27
2022-09-15T14:11:39.879Z,4.65
2022-09-15T14:14:29.753Z,5.72
2022-09-15T14:16:56.984Z,5.75
2022-09-15T14:19:36.293Z,4.28
2022-09-15T14:22:59.307Z,4.07
2022-09-15T14:25:29.003Z,5.63
2022-09-15T14:27:56.133Z,4.38
2022-09-15T14:30:24.098Z,4.57
2022-09-15T14:33:00.395Z,3.80
2022-09-15T14:35:40.269Z,5.20
2022-09-15T14:38:23.524Z,3.42
2022-09-15T14:40:56.144Z,4.05
2022-09-15T14:43:38.591Z,5.40
2022-09-15T14:48:37.473Z,2.58
2022-09-15T14:51:32.317Z,7.00
2022-09-15T14:54:03.073Z,7.20
2022-09-15T14:56:59.090Z,6.55
2022-09-15T14:59:37.486Z,6.75
2022-09-15T15:02:31.588Z,6.07
2022-09-15T15:05:09.248Z,5.35
2022-09-15T15:07:48.293Z,7.68
2022-09-15T15:10:30.091Z,4.82
2022-09-15T15:13:21.496Z,3.03
2022-09-15T15:15:49.258Z,4.22
2022-09-15T15:18:41.569Z,5.32
2022-09-15T15:21:42.627Z,4.47
2022-09-15T15:24:14.406Z,5.43
2022-09-15T15:26:43.946Z,3.90
2022-09-15T15:29:39.705Z,3.38
2022-09-15T15:32:16.989Z,6.68
2022-09-15T15:34:50.277Z,5.38
2022-09-15T15:39:57.847Z,6.80
2022-09-15T15:42:27.804Z,4.13
2022-09-15T15:45:07.510Z,5.30
2022-09-15T15:47:38.529Z,5.57
2022-09-15T15:50:13.222Z,4.70
2022-09-15T15:52:43.087Z,5.07
2022-09-15T15:55:16.697Z,5.45
2022-09-15T15:57:53.644Z,4.50
2022-09-15T16:00:45.098Z,4.22
2022-09-15T16:03:15.531Z,4.25
2022-09-15T16:05:58.673Z,5.63
2022-09-15T16:08:37.710Z,4.57
2022-09-15T16:11:07.352Z,7.40
2022-09-15T16:13:39.646Z,5.82
2022-09-15T16:19:09.054Z,6.82
2022-09-15T16:21:41.546Z,6.50
2022-09-15T16:24:58.559Z,5.32
2022-09-15T16:27:36.804Z,4.93
2022-09-15T16:30:12.454Z,3.97
2022-09-15T16:32:43.014Z,4.45
2022-09-15T16:35:23.319Z,4.28
2022-09-15T16:38:42.675Z,3.15
2022-09-15T16:41:15.764Z,6.53
2022-09-15T16:46:56.052Z,5.35
2022-09-15T16:49:25.505Z,8.10
2022-09-15T17:00:51.818Z,8.77
2022-09-15T17:03:24.646Z,5.18
2022-09-15T17:06:21.319Z,7.25
2022-09-15T17:08:55.053Z,5.90
2022-09-15T17:11:24.463Z,7.27
2022-09-15T17:13:53.939Z,3.75
2022-09-15T17:16:22.940Z,4.80
2022-09-15T17:19:04.349Z,3.50
2022-09-15T17:21:33.691Z,6.53
2022-09-15T17:26:59.015Z,4.85
2022-09-15T17:29:38.716Z,3.10
2022-09-15T17:32:05.507Z,3.92
2022-09-15T17:34:43.475Z,6.15
2022-09-15T17:37:11.006Z,6.05
2022-09-15T17:39:58.218Z,7.22
2022-09-15T17:42:25.637Z,3.75
2022-09-15T17:44:52.942Z,4.20
2022-09-15T17:47:19.599Z,4.70
2022-09-15T17:49:47.810Z,4.38
2022-09-15T17:52:16.947Z,3.90
2022-09-15T17:54:43.965Z,4.93
2022-09-15T17:57:13.055Z,3.65
2022-09-15T17:59:39.845Z,5.07
2022-09-15T18:02:16.588Z,8.15
2022-09-15T18:05:00.886Z,3.85
2022-09-15T18:07:28.631Z,9.05
2022-09-15T18:09:56.840Z,8.00
2022-09-15T18:12:28.887Z,7.63
2022-09-15T18:15:06.892Z,3.90
2022-09-15T18:17:35.736Z,5.28
2022-09-15T18:20:05.812Z,9.73
2022-09-15T18:22:35.153Z,5.28
2022-09-15T18:25:04.813Z,6.25
2022-09-15T18:27:31.471Z,7.82
2022-09-15T18:30:39.710Z,7.78
2022-09-15T18:33:20.012Z,9.38
2022-09-15T18:35:50.520Z,9.07
2022-09-15T18:38:22.607Z,5.90
2022-09-15T18:40:55.211Z,9.65
2022-09-15T18:45:54.297Z,7.05
2022-09-15T18:48:21.033Z,4.60
2022-09-15T18:50:49.144Z,4.70
2022-09-15T18:53:15.891Z,6.93
2022-09-15T18:55:43.176Z,4.65
2022-09-15T18:58:13.964Z,6.60
2022-09-15T19:00:45.187Z,3.40
2022-09-15T19:03:13.290Z,3.85
2022-09-15T19:05:45.045Z,4.90
2022-09-15T19:08:12.506Z,4.40
2022-09-15T19:10:47.177Z,6.00
2022-09-15T19:13:15.247Z,3.78
2022-09-15T19:15:44.748Z,3.75
2022-09-15T19:18:11.651Z,4.57
2022-09-15T19:20:39.586Z,5.63
2022-09-15T19:23:06.593Z,5.78
2022-09-15T19:25:42.676Z,5.20
2022-09-15T19:28:16.094Z,5.50
2022-09-15T19:30:50.162Z,7.45
2022-09-15T19:33:19.422Z,9.52
2022-09-15T19:36:11.058Z,3.85
2022-09-15T19:38:49.602Z,5.25
2022-09-15T19:41:17.160Z,4.97
2022-09-15T19:43:43.927Z,4.55
2022-09-15T19:46:15.808Z,5.30
2022-09-15T19:48:49.406Z,4.80
2022-09-15T19:51:24.568Z,9.68
2022-09-15T19:53:55.520Z,3.17
2022-09-15T19:56:28.861Z,6.00
2022-09-15T19:59:07.266Z,6.35
2022-09-15T20:01:37.629Z,5.45
2022-09-15T20:04:04.849Z,7.70
2022-09-15T20:06:34.823Z,5.60
2022-09-15T20:09:01.644Z,5.15
2022-09-15T20:11:32.498Z,6.15
2022-09-15T20:14:00.956Z,4.82
2022-09-15T20:17:00.314Z,8.85
2022-09-15T20:19:28.815Z,6.80
2022-09-15T20:22:04.648Z,5.95
2022-09-15T20:24:33.619Z,9.60
2022-09-15T20:27:02.706Z,6.53
2022-09-15T20:29:29.553Z,10.20
2022-09-15T20:31:56.179Z,9.85
2022-09-15T20:34:27.886Z,7.72
2022-09-15T20:36:55.920Z,6.00
2022-09-15T20:39:26.366Z,8.88
2022-09-15T20:41:53.638Z,6.70
2022-09-15T20:44:23.536Z,6.78
2022-09-15T20:46:54.145Z,6.43
2022-09-15T20:49:25.786Z,5.57
2022-09-15T20:51:52.534Z,9.82
2022-09-15T20:54:20.396Z,7.82
2022-09-15T20:56:47.794Z,10.73
2022-09-15T20:59:20.913Z,6.55
2022-09-15T21:01:50.788Z,8.60
2022-09-15T21:04:20.045Z,8.75
2022-09-15T21:06:49.484Z,6.72
2022-09-15T21:09:17.615Z,7.40
2022-09-15T21:11:44.342Z,8.65
2022-09-15T21:14:15.610Z,7.88
2022-09-15T21:16:47.776Z,8.82
2022-09-15T21:34:18.611Z,8.02
2022-09-15T21:36:45.444Z,5.40
2022-09-15T21:39:18.548Z,9.70
2022-09-15T21:41:47.207Z,5.32
2022-09-15T21:44:16.709Z,8.02
2022-09-15T21:46:46.190Z,8.43
2022-09-15T21:49:19.764Z,10.20
2022-09-15T21:51:49.508Z,7.97
2022-09-15T21:54:19.541Z,8.70
2022-09-15T21:56:49.893Z,7.63
2022-09-15T21:59:22.671Z,9.85
2022-09-15T22:01:52.133Z,7.22
2022-09-15T22:04:20.096Z,7.72
2022-09-15T22:06:50.926Z,7.10
2022-09-15T22:09:21.558Z,9.07
2022-09-15T22:11:48.754Z,12.82
2022-09-15T22:15:05.915Z,7.82
2022-09-15T22:17:32.540Z,7.72
2022-09-15T22:20:00.965Z,9.10
2022-09-15T22:22:33.586Z,8.50
2022-09-15T22:25:01.039Z,7.43
2022-09-15T22:27:59.584Z,7.25
2022-09-15T22:30:28.980Z,9.13
2022-09-15T22:33:46.953Z,6.32
2022-09-15T22:36:18.605Z,8.32
2022-09-15T22:38:47.187Z,10.07
2022-09-15T22:41:16.859Z,7.50
2022-09-15T22:46:42.937Z,7.05
2022-09-15T22:49:10.822Z,9.60
2022-09-15T22:51:45.125Z,8.63
2022-09-15T22:54:37.547Z,8.68
2022-09-15T22:57:05.587Z,11.30
2022-09-15T23:00:01.315Z,7.47
2022-09-15T23:02:29.043Z,8.35
2022-09-15T23:04:59.483Z,8.00
2022-09-15T23:07:26.166Z,10.20
2022-09-15T23:10:11.575Z,6.53
2022-09-15T23:12:51.455Z,6.97
2022-09-15T23:15:48.226Z,9.60
2022-09-15T23:18:17.019Z,6.30
2022-09-15T23:21:11.379Z,8.52
2022-09-15T23:23:42.423Z,11.43
2022-09-15T23:26:13.043Z,9.85
2022-09-15T23:28:39.730Z,17.02
2022-09-15T23:31:12.318Z,17.55
2022-09-15T23:36:33.317Z,17.58
2022-09-15T23:39:01.471Z,9.10
2022-09-15T23:41:31.640Z,10.80
2022-09-15T23:43:59.959Z,10.93
2022-09-15T23:46:29.652Z,10.65
2022-09-15T23:49:00.083Z,9.82
2022-09-15T23:51:58.984Z,9.25
